createdAt,value
2023-04-02T00:02:18.018Z,98078.38
2023-04-02T00:04:44.540Z,98082.25
2023-04-02T00:07:11.491Z,98086.25
2023-04-02T00:09:38.162Z,98089.97
2023-04-02T00:12:04.914Z,98104.25
2023-04-02T00:14:31.901Z,98094.91
2023-04-02T00:16:58.327Z,98092.94
2023-04-02T00:19:24.919Z,98088.38
2023-04-02T00:21:51.572Z,98079.84
2023-04-02T00:24:20.419Z,98087.09
2023-04-02T00:26:47.044Z,98081.91
2023-04-02T00:29:13.983Z,98095.22
2023-04-02T00:31:40.534Z,98085.72
2023-04-02T00:34:07.454Z,98092.44
2023-04-02T00:36:34.212Z,98085.72
2023-04-02T00:39:00.905Z,98092.91
2023-04-02T00:41:27.343Z,98094.38
2023-04-02T00:43:53.869Z,98088.84
2023-04-02T00:46:20.506Z,98093.84
2023-04-02T00:48:46.961Z,98091.38
2023-04-02T00:51:13.362Z,98101.22
2023-04-02T00:53:39.854Z,98097.06
2023-04-02T00:56:06.254Z,98096.28
2023-04-02T00:58:33.432Z,98091.97
2023-04-02T01:00:59.919Z,98096.69
2023-04-02T01:03:26.483Z,98094.66
2023-04-02T01:05:53.096Z,98083.28
2023-04-02T01:08:19.528Z,98092.22
2023-04-02T01:10:45.924Z,98097.59
2023-04-02T01:13:12.435Z,98095.41
2023-04-02T01:15:39.039Z,98094.97
2023-04-02T01:18:05.620Z,98083.38
2023-04-02T01:20:32.202Z,98081.69
2023-04-02T01:22:58.733Z,98088.47
2023-04-02T01:25:25.435Z,98086.59
2023-04-02T01:27:52.070Z,98098.13
2023-04-02T01:30:18.447Z,98090.34
2023-04-02T01:32:44.922Z,98102.44
2023-04-02T01:35:11.355Z,98092.38
2023-04-02T01:37:37.906Z,98099.00
2023-04-02T01:40:04.570Z,98102.28
2023-04-02T01:42:31.075Z,98102.28
2023-04-02T01:44:57.520Z,98102.34
2023-04-02T01:47:23.980Z,98102.03
2023-04-02T01:49:50.448Z,98101.81
2023-04-02T01:52:17.006Z,98096.53
2023-04-02T01:54:43.496Z,98111.16
2023-04-02T01:57:09.996Z,98103.19
2023-04-02T01:59:36.814Z,98094.34
2023-04-02T02:02:03.593Z,98107.16
2023-04-02T02:04:31.118Z,98101.03
2023-04-02T02:06:58.697Z,98096.41
2023-04-02T02:09:25.360Z,98097.38
2023-04-02T02:11:51.950Z,98111.75
2023-04-02T02:14:18.594Z,98106.31
2023-04-02T02:16:45.325Z,98104.03
2023-04-02T02:19:11.871Z,98102.97
2023-04-02T02:21:38.450Z,98103.56
2023-04-02T02:24:04.999Z,98102.75
2023-04-02T02:26:31.644Z,98105.28
2023-04-02T02:28:58.179Z,98100.22
2023-04-02T02:31:24.664Z,98107.59
2023-04-02T02:33:51.276Z,98105.06
2023-04-02T02:36:17.729Z,98098.53
2023-04-02T02:38:44.249Z,98104.44
2023-04-02T02:41:11.226Z,98106.16
2023-04-02T02:43:40.066Z,98108.00
2023-04-02T02:46:06.704Z,98105.31
2023-04-02T02:48:33.153Z,98113.88
2023-04-02T02:50:59.749Z,98108.22
2023-04-02T02:53:26.193Z,98114.84
2023-04-02T02:55:52.813Z,98107.41
2023-04-02T02:58:19.294Z,98122.50
2023-04-02T03:00:45.786Z,98113.88
2023-04-02T03:03:12.379Z,98114.91
2023-04-02T03:05:39.097Z,98112.47
2023-04-02T03:08:05.637Z,98108.41
2023-04-02T03:10:32.048Z,98106.16
2023-04-02T03:13:00.366Z,98119.78
2023-04-02T03:15:26.965Z,98111.94
2023-04-02T03:17:53.415Z,98114.06
2023-04-02T03:20:19.978Z,98120.44
2023-04-02T03:22:46.439Z,98126.63
2023-04-02T03:25:12.899Z,98116.81
2023-04-02T03:27:39.332Z,98119.34
2023-04-02T03:30:05.831Z,98130.28
2023-04-02T03:32:32.560Z,98117.38
2023-04-02T03:34:59.096Z,98111.91
2023-04-02T03:37:25.556Z,98115.53
2023-04-02T03:39:52.073Z,98121.44
2023-04-02T03:42:18.905Z,98118.53
2023-04-02T03:44:45.456Z,98125.69
2023-04-02T03:47:12.168Z,98125.06
2023-04-02T03:49:38.678Z,98134.44
2023-04-02T03:52:05.204Z,98136.22
2023-04-02T03:54:31.666Z,98138.09
2023-04-02T03:56:58.184Z,98132.16
2023-04-02T03:59:24.732Z,98142.09
2023-04-02T04:01:51.227Z,98136.00
2023-04-02T04:04:18.298Z,98152.47
2023-04-02T04:06:45.207Z,98162.69
2023-04-02T04:09:11.674Z,98157.91
2023-04-02T04:11:38.073Z,98163.56
2023-04-02T04:14:04.684Z,98160.13
2023-04-02T04:16:31.307Z,98163.78
2023-04-02T04:18:58.443Z,98170.59
2023-04-02T04:21:24.874Z,98171.72
2023-04-02T04:23:51.563Z,98180.00
2023-04-02T04:26:17.995Z,98188.50
2023-04-02T04:28:44.506Z,98194.81
2023-04-02T04:31:11.018Z,98188.91
2023-04-02T04:33:37.458Z,98193.66
2023-04-02T04:36:04.072Z,98192.19
2023-04-02T04:38:30.554Z,98201.78
2023-04-02T04:40:56.941Z,98202.28
2023-04-02T04:43:23.381Z,98202.06
2023-04-02T04:45:50.060Z,98207.88
2023-04-02T04:48:16.508Z,98202.50
2023-04-02T04:50:42.977Z,98217.13
2023-04-02T04:53:09.574Z,98217.06
2023-04-02T04:55:36.411Z,98216.06
2023-04-02T04:58:03.270Z,98219.25
2023-04-02T05:00:30.726Z,98219.53
2023-04-02T05:02:57.242Z,98221.75
2023-04-02T05:05:23.697Z,98216.66
2023-04-02T05:07:50.255Z,98221.91
2023-04-02T05:10:17.274Z,98224.44
2023-04-02T05:12:43.791Z,98230.28
2023-04-02T05:15:10.222Z,98232.09
2023-04-02T05:17:36.709Z,98224.59
2023-04-02T05:20:03.165Z,98228.50
2023-04-02T05:22:29.699Z,98231.13
2023-04-02T05:24:56.476Z,98235.13
2023-04-02T05:27:23.900Z,98234.72
2023-04-02T05:29:52.966Z,98234.72
2023-04-02T05:32:19.913Z,98240.38
2023-04-02T05:34:46.405Z,98249.31
2023-04-02T05:37:13.029Z,98247.69
2023-04-02T05:39:39.403Z,98249.53
2023-04-02T05:42:06.024Z,98245.22
2023-04-02T05:44:32.686Z,98246.94
2023-04-02T05:46:59.379Z,98246.47
2023-04-02T05:49:25.931Z,98244.97
2023-04-02T05:51:52.496Z,98244.47
2023-04-02T05:54:19.111Z,98253.41
2023-04-02T05:56:45.719Z,98259.44
2023-04-02T05:59:12.255Z,98255.97
2023-04-02T06:01:38.752Z,98258.91
2023-04-02T06:04:05.290Z,98273.13
2023-04-02T06:06:31.881Z,98263.19
2023-04-02T06:08:58.362Z,98264.81
2023-04-02T06:11:24.813Z,98266.38
2023-04-02T06:13:51.235Z,98263.28
2023-04-02T06:16:17.699Z,98264.81
2023-04-02T06:18:44.177Z,98271.31
2023-04-02T06:21:10.844Z,98278.69
2023-04-02T06:23:37.440Z,98277.75
2023-04-02T06:26:03.884Z,98274.06
2023-04-02T06:28:30.511Z,98269.66
2023-04-02T06:30:56.998Z,98266.94
2023-04-02T06:33:23.546Z,98274.44
2023-04-02T06:35:49.976Z,98283.09
2023-04-02T06:38:16.451Z,98281.41
2023-04-02T06:40:42.910Z,98287.44
2023-04-02T06:43:09.356Z,98290.34
2023-04-02T06:45:36.046Z,98306.72
2023-04-02T06:48:02.636Z,98292.97
2023-04-02T06:50:29.326Z,98299.75
2023-04-02T06:52:55.862Z,98303.28
2023-04-02T06:55:24.394Z,98304.47
2023-04-02T06:57:50.935Z,98307.31
2023-04-02T07:00:17.455Z,98302.28
2023-04-02T07:02:43.910Z,98311.00
2023-04-02T07:05:10.489Z,98314.03
2023-04-02T07:07:37.264Z,98313.25
2023-04-02T07:10:04.186Z,98321.53
2023-04-02T07:12:30.760Z,98319.78
2023-04-02T07:14:57.344Z,98326.06
2023-04-02T07:17:23.950Z,98319.53
2023-04-02T07:19:50.369Z,98314.59
2023-04-02T07:22:16.812Z,98327.94
2023-04-02T07:24:44.014Z,98318.50
2023-04-02T07:27:10.752Z,98322.38
2023-04-02T07:29:37.173Z,98328.28
2023-04-02T07:32:03.625Z,98333.63
2023-04-02T07:34:30.090Z,98338.09
2023-04-02T07:36:56.575Z,98329.03
2023-04-02T07:39:23.223Z,98336.38
2023-04-02T07:41:49.704Z,98343.13
2023-04-02T07:44:16.130Z,98340.13
2023-04-02T07:46:42.766Z,98344.97
2023-04-02T07:49:09.172Z,98346.31
2023-04-02T07:51:35.774Z,98357.69
2023-04-02T07:54:02.170Z,98355.69
2023-04-02T07:56:28.916Z,98359.25
2023-04-02T07:58:55.302Z,98356.00
2023-04-02T08:01:21.872Z,98360.69
2023-04-02T08:03:50.453Z,98358.16
2023-04-02T08:06:19.403Z,98362.38
2023-04-02T08:08:45.894Z,98357.78
2023-04-02T08:11:12.618Z,98373.19
2023-04-02T08:13:39.462Z,98362.84
2023-04-02T08:16:06.064Z,98368.31
2023-04-02T08:18:32.602Z,98380.09
2023-04-02T08:20:59.082Z,98378.75
2023-04-02T08:23:25.563Z,98381.09
2023-04-02T08:25:54.391Z,98388.59
2023-04-02T08:28:20.892Z,98396.66
2023-04-02T08:30:47.455Z,98398.34
2023-04-02T08:33:14.156Z,98395.06
2023-04-02T08:35:40.693Z,98402.75
2023-04-02T08:38:07.369Z,98398.94
2023-04-02T08:40:33.928Z,98402.75
2023-04-02T08:43:00.392Z,98400.59
2023-04-02T08:45:26.853Z,98407.34
2023-04-02T08:47:53.788Z,98404.81
2023-04-02T08:50:20.298Z,98406.91
2023-04-02T08:52:46.840Z,98405.41
2023-04-02T08:55:13.564Z,98418.84
2023-04-02T08:57:40.123Z,98417.91
2023-04-02T09:00:07.771Z,98415.13
2023-04-02T09:02:34.245Z,98408.16
2023-04-02T09:05:00.937Z,98408.63
2023-04-02T09:07:27.729Z,98412.53
2023-04-02T09:09:54.396Z,98408.88
2023-04-02T09:12:20.870Z,98413.91
2023-04-02T09:14:47.926Z,98419.16
2023-04-02T09:17:15.826Z,98426.88
2023-04-02T09:19:42.299Z,98432.28
2023-04-02T09:22:08.712Z,98426.41
2023-04-02T09:24:35.516Z,98423.28
2023-04-02T09:27:01.968Z,98436.81
2023-04-02T09:29:28.473Z,98408.94
2023-04-02T09:31:55.217Z,98426.66
2023-04-02T09:34:21.692Z,98434.50
2023-04-02T09:36:48.185Z,98444.56
2023-04-02T09:39:14.894Z,98438.25
2023-04-02T09:41:41.462Z,98437.75
2023-04-02T09:44:07.902Z,98438.03
2023-04-02T09:46:34.428Z,98442.31
2023-04-02T09:49:01.459Z,98441.66
2023-04-02T09:51:28.159Z,98440.44
2023-04-02T09:53:55.035Z,98445.06
2023-04-02T09:56:21.592Z,98439.41
2023-04-02T09:58:48.156Z,98449.09
2023-04-02T10:01:14.733Z,98444.69
2023-04-02T10:03:41.416Z,98442.88
2023-04-02T10:06:07.995Z,98448.44
2023-04-02T10:08:34.592Z,98446.72
2023-04-02T10:11:01.062Z,98442.38
2023-04-02T10:13:28.169Z,98453.97
2023-04-02T10:15:54.698Z,98446.66
2023-04-02T10:18:21.324Z,98455.38
2023-04-02T10:20:51.279Z,98453.22
2023-04-02T10:23:18.263Z,98456.59
2023-04-02T10:25:44.753Z,98448.69
2023-04-02T10:28:11.192Z,98469.50
2023-04-02T10:30:38.002Z,98455.78
2023-04-02T10:33:04.609Z,98462.41
2023-04-02T10:35:31.276Z,98453.13
2023-04-02T10:37:57.855Z,98451.00
2023-04-02T10:40:24.401Z,98460.94
2023-04-02T10:42:51.081Z,98459.56
2023-04-02T10:45:18.165Z,98462.84
2023-04-02T10:47:44.592Z,98459.22
2023-04-02T10:50:11.156Z,98460.09
2023-04-02T10:52:38.350Z,98466.41
2023-04-02T10:55:04.804Z,98467.50
2023-04-02T10:57:31.609Z,98464.09
2023-04-02T10:59:58.296Z,98499.75
2023-04-02T11:02:24.927Z,98467.88
2023-04-02T11:04:51.410Z,98479.38
2023-04-02T11:07:19.296Z,98478.13
2023-04-02T11:09:45.769Z,98482.16
2023-04-02T11:12:13.258Z,98490.50
2023-04-02T11:14:39.769Z,98491.34
2023-04-02T11:17:06.600Z,98495.31
2023-04-02T11:19:33.184Z,98510.09
2023-04-02T11:22:01.349Z,98513.59
2023-04-02T11:24:30.571Z,98509.47
2023-04-02T11:26:57.121Z,98518.78
2023-04-02T11:29:23.503Z,98526.53
2023-04-02T11:31:50.047Z,98544.59
2023-04-02T11:34:16.712Z,98562.31
2023-04-02T11:36:43.505Z,98570.59
2023-04-02T11:39:17.084Z,98592.47
2023-04-02T11:41:44.442Z,98604.97
2023-04-02T11:44:11.016Z,98600.03
2023-04-02T11:46:38.816Z,98606.72
2023-04-02T11:49:05.343Z,98611.66
2023-04-02T11:51:31.942Z,98604.59
2023-04-02T11:53:58.508Z,98613.84
2023-04-02T11:56:25.007Z,98622.66
2023-04-02T11:58:52.520Z,98624.66
2023-04-02T12:01:19.189Z,98638.25
2023-04-02T12:03:45.795Z,98637.53
2023-04-02T12:06:12.416Z,98644.75
2023-04-02T12:08:47.522Z,98646.25
2023-04-02T12:11:23.594Z,98649.25
2023-04-02T12:13:50.378Z,98652.69
2023-04-02T12:16:17.139Z,98660.28
2023-04-02T12:18:43.669Z,98654.22
2023-04-02T12:21:10.357Z,98656.50
2023-04-02T12:23:37.917Z,98662.13
2023-04-02T12:26:04.408Z,98672.78
2023-04-02T12:28:30.878Z,98671.53
2023-04-02T12:30:57.545Z,98678.88
2023-04-02T12:33:24.224Z,98679.28
2023-04-02T12:35:51.163Z,98666.88
2023-04-02T12:38:17.645Z,98684.09
2023-04-02T12:40:44.168Z,98683.34
2023-04-02T12:43:10.892Z,98679.59
2023-04-02T12:45:37.416Z,98683.97
2023-04-02T12:48:04.250Z,98690.00
2023-04-02T12:50:31.133Z,98690.31
2023-04-02T12:52:58.584Z,98688.06
2023-04-02T12:55:25.449Z,98696.91
2023-04-02T12:57:51.958Z,98698.59
2023-04-02T13:00:19.788Z,98702.34
2023-04-02T13:02:46.337Z,98710.06
2023-04-02T13:05:13.213Z,98702.72
2023-04-02T13:07:39.794Z,98704.28
2023-04-02T13:10:08.584Z,98710.69
2023-04-02T13:12:35.141Z,98704.75
2023-04-02T13:15:01.617Z,98712.44
2023-04-02T13:17:28.114Z,98718.03
2023-04-02T13:19:54.596Z,98727.75
2023-04-02T13:22:22.435Z,98717.59
2023-04-02T13:24:49.181Z,98723.06
2023-04-02T13:27:17.183Z,98722.31
2023-04-02T13:29:44.550Z,98726.22
2023-04-02T13:32:11.911Z,98723.91
2023-04-02T13:34:41.675Z,98722.75
2023-04-02T13:37:08.187Z,98727.06
2023-04-02T13:39:34.663Z,98730.41
2023-04-02T13:42:01.131Z,98732.00
2023-04-02T13:44:28.085Z,98728.91
2023-04-02T13:46:57.243Z,98723.44
2023-04-02T13:49:23.792Z,98721.44
2023-04-02T13:51:50.241Z,98729.13
2023-04-02T13:54:17.198Z,98724.19
2023-04-02T13:56:43.902Z,98733.41
2023-04-02T13:59:10.417Z,98738.94
2023-04-02T14:01:39.924Z,98738.59
2023-04-02T14:04:07.040Z,98736.59
2023-04-02T14:06:33.871Z,98740.47
2023-04-02T14:09:00.436Z,98739.34
2023-04-02T14:11:26.891Z,98742.75
2023-04-02T14:13:53.589Z,98751.00
2023-04-02T14:16:20.629Z,98738.09
2023-04-02T14:18:47.222Z,98740.16
2023-04-02T14:21:13.637Z,98747.22
2023-04-02T14:23:40.518Z,98750.28
2023-04-02T14:26:07.438Z,98758.25
2023-04-02T14:28:34.762Z,98764.56
2023-04-02T14:31:01.342Z,98766.59
2023-04-02T14:33:29.174Z,98764.41
2023-04-02T14:35:56.170Z,98765.91
2023-04-02T14:38:22.964Z,98763.72
2023-04-02T14:40:49.591Z,98771.78
2023-04-02T14:43:16.299Z,98772.94
2023-04-02T14:45:42.751Z,98778.19
2023-04-02T14:48:09.598Z,98787.44
2023-04-02T14:50:36.329Z,98779.28
2023-04-02T14:53:03.365Z,98789.66
2023-04-02T14:55:33.526Z,98782.59
2023-04-02T14:58:00.049Z,98790.06
2023-04-02T15:00:27.280Z,98784.19
2023-04-02T15:02:53.769Z,98788.00
2023-04-02T15:05:20.513Z,98785.00
2023-04-02T15:07:47.086Z,98797.63
2023-04-02T15:10:13.727Z,98797.66
2023-04-02T15:12:40.283Z,98788.44
2023-04-02T15:15:06.723Z,98792.38
2023-04-02T15:17:33.799Z,98787.69
2023-04-02T15:20:01.546Z,98789.34
2023-04-02T15:22:28.325Z,98801.28
2023-04-02T15:24:55.261Z,98797.63
2023-04-02T15:27:24.996Z,98804.16
2023-04-02T15:29:53.370Z,98806.44
2023-04-02T15:32:19.906Z,98815.72
2023-04-02T15:34:46.575Z,98817.63
2023-04-02T15:37:13.154Z,98831.00
2023-04-02T15:39:40.643Z,98829.75
2023-04-02T15:42:07.652Z,98836.28
2023-04-02T15:44:34.734Z,98845.97
2023-04-02T15:47:01.678Z,98844.28
2023-04-02T15:49:28.710Z,98859.13
2023-04-02T15:51:55.244Z,98862.66
2023-04-02T15:54:23.294Z,98880.72
2023-04-02T15:56:50.449Z,98866.94
2023-04-02T15:59:16.939Z,98880.41
2023-04-02T16:01:43.833Z,98886.91
2023-04-02T16:04:11.558Z,98887.22
2023-04-02T16:06:38.360Z,98890.41
2023-04-02T16:09:06.323Z,98900.41
2023-04-02T16:11:33.523Z,98908.16
2023-04-02T16:14:02.720Z,98917.00
2023-04-02T16:16:30.133Z,98916.69
2023-04-02T16:18:56.894Z,98920.56
2023-04-02T16:21:26.582Z,98934.22
2023-04-02T16:23:54.464Z,98923.31
2023-04-02T16:26:21.340Z,98937.00
2023-04-02T16:28:48.192Z,98927.69
2023-04-02T16:31:15.258Z,98943.19
2023-04-02T16:33:42.239Z,98945.66
2023-04-02T16:36:09.305Z,98949.53
2023-04-02T16:38:36.235Z,98956.75
2023-04-02T16:41:08.438Z,98952.78
2023-04-02T16:43:36.020Z,98962.34
2023-04-02T16:46:04.322Z,98966.56
2023-04-02T16:48:31.073Z,98967.72
2023-04-02T16:50:58.051Z,98987.75
2023-04-02T16:53:26.058Z,98972.66
2023-04-02T16:56:03.268Z,98981.09
2023-04-02T16:58:30.310Z,98992.47
2023-04-02T17:01:04.597Z,98999.50
2023-04-02T17:03:31.721Z,99003.50
2023-04-02T17:05:58.546Z,99017.25
2023-04-02T17:08:25.226Z,99019.09
2023-04-02T17:10:52.757Z,99032.59
2023-04-02T17:13:19.384Z,99056.63
2023-04-02T17:15:46.396Z,99051.97
2023-04-02T17:18:12.910Z,99045.78
2023-04-02T17:20:40.337Z,99064.59
2023-04-02T17:23:07.358Z,99060.03
2023-04-02T17:25:34.549Z,99071.22
2023-04-02T17:28:02.746Z,99069.25
2023-04-02T17:30:31.971Z,99070.59
2023-04-02T17:32:59.029Z,99079.03
2023-04-02T17:35:26.455Z,99095.69
2023-04-02T17:37:53.120Z,99102.72
2023-04-02T17:40:20.221Z,99109.78
2023-04-02T17:42:47.331Z,99112.97
2023-04-02T17:45:14.420Z,99112.34
2023-04-02T17:47:42.260Z,99137.28
2023-04-02T17:50:09.309Z,99130.63
2023-04-02T17:52:38.506Z,99149.84
2023-04-02T17:55:05.654Z,99141.56
2023-04-02T17:57:32.918Z,99143.88
2023-04-02T18:00:00.011Z,99147.00
2023-04-02T18:02:27.333Z,99156.97
2023-04-02T18:04:54.500Z,99172.03
2023-04-02T18:07:21.273Z,99169.47
2023-04-02T18:09:49.477Z,99182.63
2023-04-02T18:12:16.507Z,99184.03
2023-04-02T18:14:43.541Z,99199.88
2023-04-02T18:17:10.950Z,99190.22
2023-04-02T18:19:38.662Z,99184.94
2023-04-02T18:22:08.615Z,99204.56
2023-04-02T18:24:35.726Z,99199.03
2023-04-02T18:27:02.796Z,99220.34
2023-04-02T18:29:32.634Z,99234.66
2023-04-02T18:31:59.734Z,99247.03
2023-04-02T18:34:31.925Z,99237.28
2023-04-02T18:36:59.085Z,99244.41
2023-04-02T18:39:27.671Z,99247.72
2023-04-02T18:41:54.674Z,99257.97
2023-04-02T18:44:21.902Z,99256.34
2023-04-02T18:46:49.122Z,99264.97
2023-04-02T18:49:19.101Z,99263.34
2023-04-02T18:51:47.583Z,99275.38
2023-04-02T18:54:15.621Z,99273.69
2023-04-02T18:56:42.766Z,99275.38
2023-04-02T18:59:10.128Z,99271.44
2023-04-02T19:01:36.898Z,99289.94
2023-04-02T19:04:05.531Z,99280.63
2023-04-02T19:06:32.802Z,99282.78
2023-04-02T19:08:59.472Z,99282.53
2023-04-02T19:11:27.432Z,99291.03
2023-04-02T19:13:55.362Z,99296.00
2023-04-02T19:16:24.053Z,99312.72
2023-04-02T19:18:50.658Z,99307.38
2023-04-02T19:21:18.376Z,99284.84
2023-04-02T19:23:47.162Z,99301.88
2023-04-02T19:26:14.239Z,99310.34
2023-04-02T19:28:41.309Z,99305.53
2023-04-02T19:31:09.378Z,99310.25
2023-04-02T19:33:36.675Z,99320.28
2023-04-02T19:36:03.985Z,99329.16
2023-04-02T19:38:32.464Z,99319.84
2023-04-02T19:40:59.550Z,99319.09
2023-04-02T19:43:31.265Z,99331.59
2023-04-02T19:46:05.544Z,99330.63
2023-04-02T19:48:32.180Z,99333.38
2023-04-02T19:50:58.653Z,99350.22
2023-04-02T19:53:25.100Z,99341.22
2023-04-02T19:55:52.713Z,99348.25
2023-04-02T19:58:20.196Z,99351.59
2023-04-02T20:00:47.884Z,99357.75
2023-04-02T20:03:15.034Z,99352.84
2023-04-02T20:05:44.342Z,99360.91
2023-04-02T20:08:11.274Z,99362.47
2023-04-02T20:10:38.555Z,99361.06
2023-04-02T20:13:06.041Z,99365.97
2023-04-02T20:15:33.075Z,99370.69
2023-04-02T20:18:00.438Z,99370.78
2023-04-02T20:20:27.753Z,99374.47
2023-04-02T20:22:54.842Z,99389.88
2023-04-02T20:25:21.781Z,99378.63
2023-04-02T20:27:48.372Z,99383.56
2023-04-02T20:30:14.958Z,99377.19
2023-04-02T20:32:42.076Z,99389.34
2023-04-02T20:35:09.138Z,99397.28
2023-04-02T20:37:36.806Z,99409.06
2023-04-02T20:40:03.241Z,99392.75
2023-04-02T20:42:29.680Z,99401.03
2023-04-02T20:44:57.515Z,99400.25
2023-04-02T20:47:24.184Z,99385.34
2023-04-02T20:49:50.970Z,99396.44
2023-04-02T20:52:17.763Z,99390.59
2023-04-02T20:54:44.430Z,99391.97
2023-04-02T20:57:10.987Z,99387.94
2023-04-02T20:59:37.409Z,99394.66
2023-04-02T21:02:03.927Z,99388.16
2023-04-02T21:04:30.639Z,99401.03
2023-04-02T21:06:59.578Z,99401.91
2023-04-02T21:09:25.955Z,99401.00
2023-04-02T21:11:52.432Z,99395.88
2023-04-02T21:14:19.153Z,99402.97
2023-04-02T21:16:45.613Z,99405.84
2023-04-02T21:19:12.121Z,99408.22
2023-04-02T21:21:38.709Z,99401.31
2023-04-02T21:24:05.717Z,99407.22
2023-04-02T21:26:33.478Z,99410.56
2023-04-02T21:29:01.171Z,99404.53
2023-04-02T21:31:28.340Z,99415.28
2023-04-02T21:33:55.329Z,99415.91
2023-04-02T21:36:22.139Z,99414.50
2023-04-02T21:38:48.639Z,99415.28
2023-04-02T21:41:15.186Z,99408.44
2023-04-02T21:43:43.283Z,99407.06
2023-04-02T21:46:09.991Z,99410.31
2023-04-02T21:48:39.022Z,99411.31
2023-04-02T21:51:05.648Z,99409.69
2023-04-02T21:53:32.178Z,99428.56
2023-04-02T21:55:59.479Z,99401.09
2023-04-02T21:58:27.336Z,99412.28
2023-04-02T22:00:53.891Z,99406.53
2023-04-02T22:03:30.925Z,99410.63
2023-04-02T22:05:58.275Z,99402.13
2023-04-02T22:08:24.839Z,99405.94
2023-04-02T22:10:51.281Z,99419.59
2023-04-02T22:13:17.772Z,99407.72
2023-04-02T22:15:44.378Z,99401.22
2023-04-02T22:18:10.845Z,99417.00
2023-04-02T22:20:38.560Z,99403.94
2023-04-02T22:23:06.659Z,99411.16
2023-04-02T22:25:33.111Z,99412.97
2023-04-02T22:27:59.623Z,99414.03
2023-04-02T22:30:26.073Z,99411.50
2023-04-02T22:32:52.559Z,99407.13
2023-04-02T22:35:19.036Z,99410.09
2023-04-02T22:37:46.118Z,99416.34
2023-04-02T22:40:12.566Z,99415.31
2023-04-02T22:42:38.981Z,99415.56
2023-04-02T22:45:05.532Z,99405.13
2023-04-02T22:47:32.078Z,99407.34
2023-04-02T22:49:58.542Z,99407.97
2023-04-02T22:52:25.106Z,99412.63
2023-04-02T22:54:51.737Z,99396.88
2023-04-02T22:57:18.252Z,99418.16
2023-04-02T22:59:44.835Z,99417.66
2023-04-02T23:02:11.721Z,99413.84
2023-04-02T23:04:38.268Z,99404.75
2023-04-02T23:07:04.829Z,99418.94
2023-04-02T23:09:31.560Z,99410.22
2023-04-02T23:11:58.002Z,99414.16
2023-04-02T23:14:24.636Z,99407.56
2023-04-02T23:16:51.109Z,99398.19
2023-04-02T23:19:17.611Z,99410.91
2023-04-02T23:21:44.077Z,99408.53
2023-04-02T23:24:10.615Z,99411.13
2023-04-02T23:26:37.030Z,99411.03
2023-04-02T23:29:03.606Z,99410.06
2023-04-02T23:31:30.078Z,99409.97
2023-04-02T23:33:56.542Z,99412.22
2023-04-02T23:36:23.362Z,99411.28
2023-04-02T23:38:49.850Z,99400.88
2023-04-02T23:41:16.352Z,99404.38
2023-04-02T23:43:43.455Z,99403.06
2023-04-02T23:46:09.910Z,99396.28
2023-04-02T23:48:36.420Z,99405.41
2023-04-02T23:51:02.796Z,99407.19
2023-04-02T23:53:29.328Z,99408.50
2023-04-02T23:55:55.802Z,99403.47
2023-04-02T23:58:22.336Z,99407.66
